Pagrindinis puslapis
METAR-TAF:

METAR-TAF

Oro uostai :

Watson Lake, Jukonas, Kanada

platuma: 60-07N, ilguma: 128-49W, Aukštis: 690 m

Dabartinis oras

Ataskaita buvo paskelbta 37 minutes, ne 10:00 UTC
Vėjas 3 kt iš Rytų/Šiaurės Rytų
Temperatūra 3°C
Drėgmė 75%
Slėgis 1012 hPa
Matomumas: 24.1 km
Su prošvaistėmis ne aukštis 15000 ft
Apsiniaukę ne aukštis 22000 ft

METAR: CYQH 051000Z 07003KT 15SM BKN150 OVC220 03/M01 A2987 RMK AC5CI3 SLP136

Laikas: 03:37 (10:37 UTC)

Prognozė

Ataskaita buvo paskelbta 4 valandos ir 59 minutes, ne 05:38 UTC
Prognozė galioja nuo 05 metu 06 UTC su 05 metu 18 UTC
Vėjas 3 kt nuo kintamojo kryptimis
Matomumas: 10 km
Išsisklaidę debesys ne aukštis 6000 ft
Su prošvaistėmis ne aukštis 12000 ft
Laikinai
nuo 05 metu 06 UTC su 05 metu 08 UTC
Matomumas: 10 km
lietus
Nuo 05 metu 0800 UTC
Vėjas 3 kt nuo kintamojo kryptimis
Matomumas: 10 km
Išsisklaidę debesys ne aukštis 6000 ft

TAF: CYQH 050538Z 0506/0518 VRB03KT P6SM SCT060 BKN120 TEMPO 0506/0508 P6SM -SHRA FM050800 VRB03KT P6SM SCT060 RMK NXT FCST BY 051200Z

Orai ataskaitas ir orų prognozės (METAR, TAF).

turimą stotys yra geltonos ir raudonos taškus žemėlapyje.

Perkelti pele per norėdami pamatyti stoties vardą.

Tada spustelėkite, norėdami matyti oro stebėjimo ir prognozės.

Norėdami pakeisti žemėlapį: spustelėkite ant žalios mygtukų su juodo kryžiaus žemyn,; žalią mygtuką su brūkšneliu, jei norite nutolinti; arba žalių rodyklių gretimoms žemėlapius.


METAR-TAF: